sensor_id;sensor_type;location;lat;lon;timestamp;P1;durP1;ratioP1;P2;durP2;ratioP2
3633;SDS011;1833;42.718;23.270;2023-07-31T00:01:07;30.83;;;28.40;;
3633;SDS011;1833;42.718;23.270;2023-07-31T00:03:34;30.07;;;27.87;;
3633;SDS011;1833;42.718;23.270;2023-07-31T00:06:01;29.63;;;27.43;;
3633;SDS011;1833;42.718;23.270;2023-07-31T00:08:28;30.20;;;27.90;;
3633;SDS011;1833;42.718;23.270;2023-07-31T00:10:56;29.90;;;27.67;;
3633;SDS011;1833;42.718;23.270;2023-07-31T00:13:23;30.77;;;28.50;;
3633;SDS011;1833;42.718;23.270;2023-07-31T00:15:50;29.93;;;27.57;;
3633;SDS011;1833;42.718;23.270;2023-07-31T00:18:19;29.80;;;27.60;;
3633;SDS011;1833;42.718;23.270;2023-07-31T00:20:46;30.60;;;28.30;;
3633;SDS011;1833;42.718;23.270;2023-07-31T00:23:13;31.13;;;28.83;;
3633;SDS011;1833;42.718;23.270;2023-07-31T00:25:41;30.27;;;28.10;;
3633;SDS011;1833;42.718;23.270;2023-07-31T00:28:08;30.57;;;28.30;;
3633;SDS011;1833;42.718;23.270;2023-07-31T00:30:35;31.90;;;29.60;;
3633;SDS011;1833;42.718;23.270;2023-07-31T00:33:03;30.97;;;28.57;;
3633;SDS011;1833;42.718;23.270;2023-07-31T00:35:31;31.70;;;29.40;;
3633;SDS011;1833;42.718;23.270;2023-07-31T00:37:59;32.30;;;29.70;;
3633;SDS011;1833;42.718;23.270;2023-07-31T00:40:26;31.17;;;28.37;;
3633;SDS011;1833;42.718;23.270;2023-07-31T00:42:53;31.57;;;29.07;;
3633;SDS011;1833;42.718;23.270;2023-07-31T00:45:20;30.60;;;28.07;;
3633;SDS011;1833;42.718;23.270;2023-07-31T00:47:48;32.20;;;29.70;;
3633;SDS011;1833;42.718;23.270;2023-07-31T00:50:16;32.20;;;29.80;;
3633;SDS011;1833;42.718;23.270;2023-07-31T00:52:44;34.20;;;31.50;;
3633;SDS011;1833;42.718;23.270;2023-07-31T00:55:12;34.10;;;31.33;;
3633;SDS011;1833;42.718;23.270;2023-07-31T00:57:39;34.77;;;31.97;;
3633;SDS011;1833;42.718;23.270;2023-07-31T01:00:08;36.10;;;33.20;;
3633;SDS011;1833;42.718;23.270;2023-07-31T01:02:36;36.03;;;33.23;;
3633;SDS011;1833;42.718;23.270;2023-07-31T01:05:03;36.90;;;33.93;;
3633;SDS011;1833;42.718;23.270;2023-07-31T01:07:33;36.77;;;33.77;;
3633;SDS011;1833;42.718;23.270;2023-07-31T01:10:04;35.77;;;32.87;;
3633;SDS011;1833;42.718;23.270;2023-07-31T01:12:33;37.17;;;34.10;;
3633;SDS011;1833;42.718;23.270;2023-07-31T01:15:03;37.77;;;34.67;;
3633;SDS011;1833;42.718;23.270;2023-07-31T01:17:30;37.63;;;34.40;;
3633;SDS011;1833;42.718;23.270;2023-07-31T01:19:59;37.90;;;34.60;;
3633;SDS011;1833;42.718;23.270;2023-07-31T01:22:30;38.83;;;35.50;;
3633;SDS011;1833;42.718;23.270;2023-07-31T01:25:01;39.70;;;36.27;;
3633;SDS011;1833;42.718;23.270;2023-07-31T01:27:35;38.83;;;35.53;;
3633;SDS011;1833;42.718;23.270;2023-07-31T01:30:08;39.70;;;36.17;;
3633;SDS011;1833;42.718;23.270;2023-07-31T01:32:39;38.73;;;35.43;;
3633;SDS011;1833;42.718;23.270;2023-07-31T01:35:07;40.17;;;36.67;;
3633;SDS011;1833;42.718;23.270;2023-07-31T01:37:35;41.27;;;37.70;;
3633;SDS011;1833;42.718;23.270;2023-07-31T01:40:02;42.37;;;38.13;;
3633;SDS011;1833;42.718;23.270;2023-07-31T01:42:29;42.50;;;38.73;;
3633;SDS011;1833;42.718;23.270;2023-07-31T01:44:58;42.20;;;38.23;;
3633;SDS011;1833;42.718;23.270;2023-07-31T01:47:25;43.47;;;39.47;;
3633;SDS011;1833;42.718;23.270;2023-07-31T01:49:53;43.30;;;39.30;;
3633;SDS011;1833;42.718;23.270;2023-07-31T01:52:20;44.70;;;40.40;;
3633;SDS011;1833;42.718;23.270;2023-07-31T01:54:47;42.17;;;38.17;;
3633;SDS011;1833;42.718;23.270;2023-07-31T01:57:14;43.07;;;39.00;;
3633;SDS011;1833;42.718;23.270;2023-07-31T01:59:41;41.90;;;37.90;;
3633;SDS011;1833;42.718;23.270;2023-07-31T02:02:10;41.13;;;37.23;;
3633;SDS011;1833;42.718;23.270;2023-07-31T02:04:37;43.60;;;39.60;;
3633;SDS011;1833;42.718;23.270;2023-07-31T02:07:06;44.03;;;39.93;;
3633;SDS011;1833;42.718;23.270;2023-07-31T02:09:33;43.03;;;39.13;;
3633;SDS011;1833;42.718;23.270;2023-07-31T02:12:00;44.90;;;40.33;;
3633;SDS011;1833;42.718;23.270;2023-07-31T02:14:27;40.70;;;36.77;;
3633;SDS011;1833;42.718;23.270;2023-07-31T02:16:55;44.67;;;40.30;;
3633;SDS011;1833;42.718;23.270;2023-07-31T02:19:23;43.33;;;39.17;;
3633;SDS011;1833;42.718;23.270;2023-07-31T02:21:50;44.10;;;39.33;;
3633;SDS011;1833;42.718;23.270;2023-07-31T02:24:18;46.77;;;42.30;;
3633;SDS011;1833;42.718;23.270;2023-07-31T02:26:45;44.03;;;39.87;;
3633;SDS011;1833;42.718;23.270;2023-07-31T02:29:12;43.37;;;39.10;;
3633;SDS011;1833;42.718;23.270;2023-07-31T02:31:39;43.20;;;39.00;;
3633;SDS011;1833;42.718;23.270;2023-07-31T02:34:07;46.17;;;41.50;;
3633;SDS011;1833;42.718;23.270;2023-07-31T02:36:35;44.43;;;39.83;;
3633;SDS011;1833;42.718;23.270;2023-07-31T02:39:02;45.03;;;40.80;;
3633;SDS011;1833;42.718;23.270;2023-07-31T02:41:30;46.87;;;42.37;;
3633;SDS011;1833;42.718;23.270;2023-07-31T02:43:57;43.70;;;39.63;;
3633;SDS011;1833;42.718;23.270;2023-07-31T02:46:24;45.37;;;40.97;;
3633;SDS011;1833;42.718;23.270;2023-07-31T02:48:51;44.90;;;40.70;;
3633;SDS011;1833;42.718;23.270;2023-07-31T02:51:19;43.03;;;38.93;;
3633;SDS011;1833;42.718;23.270;2023-07-31T02:53:47;44.17;;;39.83;;
3633;SDS011;1833;42.718;23.270;2023-07-31T02:56:15;42.47;;;38.37;;
3633;SDS011;1833;42.718;23.270;2023-07-31T02:58:42;43.70;;;39.63;;
3633;SDS011;1833;42.718;23.270;2023-07-31T03:01:10;45.13;;;40.80;;
3633;SDS011;1833;42.718;23.270;2023-07-31T03:03:37;42.97;;;39.13;;
3633;SDS011;1833;42.718;23.270;2023-07-31T03:06:04;43.27;;;39.17;;
3633;SDS011;1833;42.718;23.270;2023-07-31T03:08:31;46.70;;;41.93;;
3633;SDS011;1833;42.718;23.270;2023-07-31T03:11:00;43.83;;;39.53;;
3633;SDS011;1833;42.718;23.270;2023-07-31T03:13:27;45.70;;;40.10;;
3633;SDS011;1833;42.718;23.270;2023-07-31T03:15:54;46.57;;;41.73;;
3633;SDS011;1833;42.718;23.270;2023-07-31T03:18:22;43.53;;;39.00;;
3633;SDS011;1833;42.718;23.270;2023-07-31T03:20:49;43.87;;;39.97;;
3633;SDS011;1833;42.718;23.270;2023-07-31T03:23:16;45.13;;;40.83;;
3633;SDS011;1833;42.718;23.270;2023-07-31T03:25:55;45.97;;;41.43;;
3633;SDS011;1833;42.718;23.270;2023-07-31T03:28:24;44.40;;;40.10;;
3633;SDS011;1833;42.718;23.270;2023-07-31T03:30:51;43.10;;;38.90;;
3633;SDS011;1833;42.718;23.270;2023-07-31T03:33:18;43.37;;;38.87;;
3633;SDS011;1833;42.718;23.270;2023-07-31T03:35:45;44.30;;;38.30;;
3633;SDS011;1833;42.718;23.270;2023-07-31T03:38:13;44.60;;;40.20;;
3633;SDS011;1833;42.718;23.270;2023-07-31T03:40:40;45.27;;;41.07;;
3633;SDS011;1833;42.718;23.270;2023-07-31T03:43:07;43.87;;;39.70;;
3633;SDS011;1833;42.718;23.270;2023-07-31T03:45:36;43.77;;;39.37;;
3633;SDS011;1833;42.718;23.270;2023-07-31T03:48:03;42.20;;;38.07;;
3633;SDS011;1833;42.718;23.270;2023-07-31T03:50:30;44.70;;;40.47;;
3633;SDS011;1833;42.718;23.270;2023-07-31T03:52:58;43.77;;;39.23;;
3633;SDS011;1833;42.718;23.270;2023-07-31T03:55:25;46.27;;;41.27;;
3633;SDS011;1833;42.718;23.270;2023-07-31T03:57:52;43.70;;;39.20;;
3633;SDS011;1833;42.718;23.270;2023-07-31T04:00:19;44.60;;;40.30;;
3633;SDS011;1833;42.718;23.270;2023-07-31T04:02:49;47.47;;;42.40;;
3633;SDS011;1833;42.718;23.270;2023-07-31T04:05:16;50.23;;;44.37;;
3633;SDS011;1833;42.718;23.270;2023-07-31T04:07:43;44.50;;;40.00;;
3633;SDS011;1833;42.718;23.270;2023-07-31T04:10:11;46.40;;;41.80;;
3633;SDS011;1833;42.718;23.270;2023-07-31T04:12:38;46.40;;;41.80;;
3633;SDS011;1833;42.718;23.270;2023-07-31T04:15:05;47.27;;;42.13;;
3633;SDS011;1833;42.718;23.270;2023-07-31T04:17:33;47.43;;;42.43;;
3633;SDS011;1833;42.718;23.270;2023-07-31T04:20:01;47.33;;;42.33;;
3633;SDS011;1833;42.718;23.270;2023-07-31T04:22:29;45.30;;;40.77;;
3633;SDS011;1833;42.718;23.270;2023-07-31T04:24:56;45.60;;;41.00;;
3633;SDS011;1833;42.718;23.270;2023-07-31T04:27:23;44.60;;;40.30;;
3633;SDS011;1833;42.718;23.270;2023-07-31T04:29:50;42.47;;;38.33;;
3633;SDS011;1833;42.718;23.270;2023-07-31T04:32:17;44.43;;;39.83;;
3633;SDS011;1833;42.718;23.270;2023-07-31T04:34:46;42.50;;;38.27;;
3633;SDS011;1833;42.718;23.270;2023-07-31T04:37:14;45.50;;;41.00;;
3633;SDS011;1833;42.718;23.270;2023-07-31T04:39:41;46.00;;;41.33;;
3633;SDS011;1833;42.718;23.270;2023-07-31T04:42:09;45.87;;;40.90;;
3633;SDS011;1833;42.718;23.270;2023-07-31T04:44:36;43.23;;;39.10;;
3633;SDS011;1833;42.718;23.270;2023-07-31T04:47:03;42.10;;;38.00;;
3633;SDS011;1833;42.718;23.270;2023-07-31T04:49:31;40.30;;;36.47;;
3633;SDS011;1833;42.718;23.270;2023-07-31T04:51:58;46.43;;;41.90;;
3633;SDS011;1833;42.718;23.270;2023-07-31T04:54:27;38.80;;;35.30;;
3633;SDS011;1833;42.718;23.270;2023-07-31T04:56:54;44.07;;;39.77;;
3633;SDS011;1833;42.718;23.270;2023-07-31T04:59:21;42.17;;;38.17;;
3633;SDS011;1833;42.718;23.270;2023-07-31T05:01:48;40.57;;;37.07;;
3633;SDS011;1833;42.718;23.270;2023-07-31T05:04:16;41.67;;;37.67;;
3633;SDS011;1833;42.718;23.270;2023-07-31T05:06:43;41.53;;;38.03;;
3633;SDS011;1833;42.718;23.270;2023-07-31T05:09:10;41.90;;;38.40;;
3633;SDS011;1833;42.718;23.270;2023-07-31T05:11:39;41.10;;;37.00;;
3633;SDS011;1833;42.718;23.270;2023-07-31T05:14:08;42.30;;;38.50;;
3633;SDS011;1833;42.718;23.270;2023-07-31T05:16:35;41.40;;;37.80;;
3633;SDS011;1833;42.718;23.270;2023-07-31T05:19:02;42.80;;;39.00;;
3633;SDS011;1833;42.718;23.270;2023-07-31T05:21:29;41.80;;;37.87;;
3633;SDS011;1833;42.718;23.270;2023-07-31T05:23:56;42.40;;;38.50;;
3633;SDS011;1833;42.718;23.270;2023-07-31T05:26:24;38.40;;;35.17;;
3633;SDS011;1833;42.718;23.270;2023-07-31T05:28:52;40.20;;;36.77;;
3633;SDS011;1833;42.718;23.270;2023-07-31T05:31:20;38.40;;;35.00;;
3633;SDS011;1833;42.718;23.270;2023-07-31T05:33:47;42.17;;;38.67;;
3633;SDS011;1833;42.718;23.270;2023-07-31T05:36:15;41.23;;;37.70;;
3633;SDS011;1833;42.718;23.270;2023-07-31T05:38:43;38.50;;;35.50;;
3633;SDS011;1833;42.718;23.270;2023-07-31T05:41:10;37.27;;;34.17;;
3633;SDS011;1833;42.718;23.270;2023-07-31T05:43:38;38.65;;;35.45;;
3633;SDS011;1833;42.718;23.270;2023-07-31T05:46:06;39.20;;;36.00;;
3633;SDS011;1833;42.718;23.270;2023-07-31T05:48:34;37.40;;;34.20;;
3633;SDS011;1833;42.718;23.270;2023-07-31T05:51:01;36.07;;;33.30;;
3633;SDS011;1833;42.718;23.270;2023-07-31T05:53:28;34.03;;;31.45;;
3633;SDS011;1833;42.718;23.270;2023-07-31T05:55:56;37.53;;;34.43;;
3633;SDS011;1833;42.718;23.270;2023-07-31T05:58:23;35.70;;;32.90;;
3633;SDS011;1833;42.718;23.270;2023-07-31T06:00:50;34.55;;;31.80;;
3633;SDS011;1833;42.718;23.270;2023-07-31T06:03:19;36.77;;;33.70;;
3633;SDS011;1833;42.718;23.270;2023-07-31T06:05:46;33.67;;;31.10;;
3633;SDS011;1833;42.718;23.270;2023-07-31T06:08:13;36.70;;;33.63;;
3633;SDS011;1833;42.718;23.270;2023-07-31T06:10:40;37.13;;;33.90;;
3633;SDS011;1833;42.718;23.270;2023-07-31T06:13:08;36.00;;;33.03;;
3633;SDS011;1833;42.718;23.270;2023-07-31T06:15:35;32.30;;;29.80;;
3633;SDS011;1833;42.718;23.270;2023-07-31T06:18:02;34.00;;;30.90;;
3633;SDS011;1833;42.718;23.270;2023-07-31T06:20:34;35.70;;;32.00;;
3633;SDS011;1833;42.718;23.270;2023-07-31T06:23:01;35.60;;;32.17;;
3633;SDS011;1833;42.718;23.270;2023-07-31T06:25:28;34.77;;;31.80;;
3633;SDS011;1833;42.718;23.270;2023-07-31T06:27:56;34.20;;;31.40;;
3633;SDS011;1833;42.718;23.270;2023-07-31T06:30:23;32.60;;;29.70;;
3633;SDS011;1833;42.718;23.270;2023-07-31T06:32:50;33.40;;;30.07;;
3633;SDS011;1833;42.718;23.270;2023-07-31T06:35:17;32.60;;;30.00;;
3633;SDS011;1833;42.718;23.270;2023-07-31T06:37:46;33.90;;;31.20;;
3633;SDS011;1833;42.718;23.270;2023-07-31T06:40:13;33.30;;;30.43;;
3633;SDS011;1833;42.718;23.270;2023-07-31T06:42:41;34.20;;;31.50;;
3633;SDS011;1833;42.718;23.270;2023-07-31T06:45:09;32.80;;;29.97;;
3633;SDS011;1833;42.718;23.270;2023-07-31T06:47:37;33.13;;;30.53;;
3633;SDS011;1833;42.718;23.270;2023-07-31T06:50:04;32.07;;;29.47;;
3633;SDS011;1833;42.718;23.270;2023-07-31T06:52:31;34.70;;;32.00;;
3633;SDS011;1833;42.718;23.270;2023-07-31T06:55:04;35.72;;;32.83;;
3633;SDS011;1833;42.718;23.270;2023-07-31T06:57:31;33.05;;;30.38;;
3633;SDS011;1833;42.718;23.270;2023-07-31T06:59:58;32.78;;;29.67;;
3633;SDS011;1833;42.718;23.270;2023-07-31T07:02:25;34.72;;;32.03;;
3633;SDS011;1833;42.718;23.270;2023-07-31T07:04:53;31.80;;;29.30;;
3633;SDS011;1833;42.718;23.270;2023-07-31T07:07:20;33.93;;;30.83;;
3633;SDS011;1833;42.718;23.270;2023-07-31T07:09:47;33.47;;;30.83;;
3633;SDS011;1833;42.718;23.270;2023-07-31T07:12:16;33.17;;;30.23;;
3633;SDS011;1833;42.718;23.270;2023-07-31T07:14:43;31.70;;;29.33;;
3633;SDS011;1833;42.718;23.270;2023-07-31T07:17:11;32.80;;;30.20;;
3633;SDS011;1833;42.718;23.270;2023-07-31T07:19:39;32.73;;;30.23;;
3633;SDS011;1833;42.718;23.270;2023-07-31T07:22:07;34.20;;;31.37;;
3633;SDS011;1833;42.718;23.270;2023-07-31T07:24:34;34.13;;;31.30;;
3633;SDS011;1833;42.718;23.270;2023-07-31T07:27:01;33.63;;;30.90;;
3633;SDS011;1833;42.718;23.270;2023-07-31T07:29:30;32.37;;;29.97;;
3633;SDS011;1833;42.718;23.270;2023-07-31T07:31:57;34.13;;;31.40;;
3633;SDS011;1833;42.718;23.270;2023-07-31T07:34:25;32.77;;;30.13;;
3633;SDS011;1833;42.718;23.270;2023-07-31T07:36:54;33.97;;;31.07;;
3633;SDS011;1833;42.718;23.270;2023-07-31T07:39:21;33.40;;;30.90;;
3633;SDS011;1833;42.718;23.270;2023-07-31T07:41:49;33.63;;;31.03;;
3633;SDS011;1833;42.718;23.270;2023-07-31T07:44:16;33.17;;;30.23;;
3633;SDS011;1833;42.718;23.270;2023-07-31T07:46:44;33.73;;;31.13;;
3633;SDS011;1833;42.718;23.270;2023-07-31T07:49:12;34.83;;;32.07;;
3633;SDS011;1833;42.718;23.270;2023-07-31T07:51:39;33.67;;;30.90;;
3633;SDS011;1833;42.718;23.270;2023-07-31T07:54:06;35.75;;;32.83;;
3633;SDS011;1833;42.718;23.270;2023-07-31T07:56:33;33.40;;;30.90;;
3633;SDS011;1833;42.718;23.270;2023-07-31T07:59:01;33.90;;;31.20;;
3633;SDS011;1833;42.718;23.270;2023-07-31T08:01:28;33.60;;;30.83;;
3633;SDS011;1833;42.718;23.270;2023-07-31T08:03:57;34.17;;;31.50;;
3633;SDS011;1833;42.718;23.270;2023-07-31T08:06:24;34.45;;;31.70;;
3633;SDS011;1833;42.718;23.270;2023-07-31T08:08:55;33.97;;;31.17;;
3633;SDS011;1833;42.718;23.270;2023-07-31T08:11:39;33.75;;;31.08;;
3633;SDS011;1833;42.718;23.270;2023-07-31T08:14:06;34.70;;;31.95;;
3633;SDS011;1833;42.718;23.270;2023-07-31T08:16:33;33.80;;;31.10;;
3633;SDS011;1833;42.718;23.270;2023-07-31T08:19:02;33.83;;;31.17;;
3633;SDS011;1833;42.718;23.270;2023-07-31T08:21:29;36.05;;;33.15;;
3633;SDS011;1833;42.718;23.270;2023-07-31T08:23:57;34.97;;;31.88;;
3633;SDS011;1833;42.718;23.270;2023-07-31T08:26:24;32.60;;;30.05;;
3633;SDS011;1833;42.718;23.270;2023-07-31T08:28:51;32.97;;;30.35;;
3633;SDS011;1833;42.718;23.270;2023-07-31T08:31:18;34.15;;;31.20;;
3633;SDS011;1833;42.718;23.270;2023-07-31T08:33:46;34.80;;;32.00;;
3633;SDS011;1833;42.718;23.270;2023-07-31T08:36:14;32.35;;;29.73;;
3633;SDS011;1833;42.718;23.270;2023-07-31T08:38:42;31.33;;;28.77;;
3633;SDS011;1833;42.718;23.270;2023-07-31T08:41:09;35.22;;;32.28;;
3633;SDS011;1833;42.718;23.270;2023-07-31T08:43:38;33.53;;;30.80;;
3633;SDS011;1833;42.718;23.270;2023-07-31T08:46:05;34.13;;;30.88;;
3633;SDS011;1833;42.718;23.270;2023-07-31T08:48:33;33.65;;;30.75;;
3633;SDS011;1833;42.718;23.270;2023-07-31T08:51:02;48.35;;;44.75;;
3633;SDS011;1833;42.718;23.270;2023-07-31T08:53:31;48.55;;;45.03;;
3633;SDS011;1833;42.718;23.270;2023-07-31T08:55:58;52.90;;;49.17;;
3633;SDS011;1833;42.718;23.270;2023-07-31T08:58:26;52.50;;;48.70;;
3633;SDS011;1833;42.718;23.270;2023-07-31T09:00:54;52.42;;;48.92;;
3633;SDS011;1833;42.718;23.270;2023-07-31T09:03:23;46.83;;;43.70;;
3633;SDS011;1833;42.718;23.270;2023-07-31T09:05:50;46.67;;;43.42;;
3633;SDS011;1833;42.718;23.270;2023-07-31T09:08:19;35.30;;;32.60;;
3633;SDS011;1833;42.718;23.270;2023-07-31T09:10:48;34.17;;;31.33;;
3633;SDS011;1833;42.718;23.270;2023-07-31T09:13:16;32.42;;;30.13;;
3633;SDS011;1833;42.718;23.270;2023-07-31T09:15:44;42.80;;;39.60;;
3633;SDS011;1833;42.718;23.270;2023-07-31T09:18:11;33.65;;;31.20;;
3633;SDS011;1833;42.718;23.270;2023-07-31T09:20:39;34.40;;;31.35;;
3633;SDS011;1833;42.718;23.270;2023-07-31T09:23:07;34.00;;;31.25;;
3633;SDS011;1833;42.718;23.270;2023-07-31T09:25:35;43.60;;;40.40;;
3633;SDS011;1833;42.718;23.270;2023-07-31T09:28:04;33.72;;;30.85;;
3633;SDS011;1833;42.718;23.270;2023-07-31T09:30:32;36.25;;;33.13;;
3633;SDS011;1833;42.718;23.270;2023-07-31T09:33:10;42.50;;;39.40;;
3633;SDS011;1833;42.718;23.270;2023-07-31T09:35:38;32.80;;;30.10;;
3633;SDS011;1833;42.718;23.270;2023-07-31T09:38:07;35.70;;;32.70;;
3633;SDS011;1833;42.718;23.270;2023-07-31T09:40:34;33.50;;;30.67;;
3633;SDS011;1833;42.718;23.270;2023-07-31T09:43:03;32.25;;;29.48;;
3633;SDS011;1833;42.718;23.270;2023-07-31T09:45:33;30.73;;;28.33;;
3633;SDS011;1833;42.718;23.270;2023-07-31T09:48:00;35.38;;;31.98;;
3633;SDS011;1833;42.718;23.270;2023-07-31T09:50:27;35.03;;;31.92;;
3633;SDS011;1833;42.718;23.270;2023-07-31T09:52:55;33.10;;;30.40;;
3633;SDS011;1833;42.718;23.270;2023-07-31T09:55:22;32.40;;;29.77;;
3633;SDS011;1833;42.718;23.270;2023-07-31T09:57:49;32.58;;;29.98;;
3633;SDS011;1833;42.718;23.270;2023-07-31T10:00:18;31.65;;;29.20;;
3633;SDS011;1833;42.718;23.270;2023-07-31T10:02:47;29.80;;;27.50;;
3633;SDS011;1833;42.718;23.270;2023-07-31T10:05:15;32.35;;;29.75;;
3633;SDS011;1833;42.718;23.270;2023-07-31T10:07:42;30.30;;;27.50;;
3633;SDS011;1833;42.718;23.270;2023-07-31T10:10:10;32.13;;;29.42;;
3633;SDS011;1833;42.718;23.270;2023-07-31T10:12:37;31.25;;;28.85;;
3633;SDS011;1833;42.718;23.270;2023-07-31T10:15:05;32.40;;;29.80;;
3633;SDS011;1833;42.718;23.270;2023-07-31T10:17:34;35.25;;;32.30;;
3633;SDS011;1833;42.718;23.270;2023-07-31T10:20:03;32.78;;;30.17;;
3633;SDS011;1833;42.718;23.270;2023-07-31T10:22:31;38.40;;;32.90;;
3633;SDS011;1833;42.718;23.270;2023-07-31T10:24:59;34.15;;;31.25;;
3633;SDS011;1833;42.718;23.270;2023-07-31T10:27:26;33.88;;;31.00;;
3633;SDS011;1833;42.718;23.270;2023-07-31T10:29:54;32.05;;;29.55;;
3633;SDS011;1833;42.718;23.270;2023-07-31T10:32:22;31.70;;;29.20;;
3633;SDS011;1833;42.718;23.270;2023-07-31T10:34:51;30.73;;;28.23;;
3633;SDS011;1833;42.718;23.270;2023-07-31T10:37:22;31.88;;;29.17;;
3633;SDS011;1833;42.718;23.270;2023-07-31T10:39:56;31.40;;;28.60;;
3633;SDS011;1833;42.718;23.270;2023-07-31T10:42:33;28.92;;;26.63;;
3633;SDS011;1833;42.718;23.270;2023-07-31T10:45:01;31.00;;;28.50;;
3633;SDS011;1833;42.718;23.270;2023-07-31T10:47:27;30.25;;;27.60;;
3633;SDS011;1833;42.718;23.270;2023-07-31T10:52:38;30.90;;;28.05;;
3633;SDS011;1833;42.718;23.270;2023-07-31T10:55:15;30.88;;;28.58;;
3633;SDS011;1833;42.718;23.270;2023-07-31T10:57:44;33.33;;;30.20;;
3633;SDS011;1833;42.718;23.270;2023-07-31T11:00:18;34.30;;;31.40;;
3633;SDS011;1833;42.718;23.270;2023-07-31T11:02:55;34.10;;;31.25;;
3633;SDS011;1833;42.718;23.270;2023-07-31T11:05:32;31.33;;;28.83;;
3633;SDS011;1833;42.718;23.270;2023-07-31T11:08:12;30.95;;;28.38;;
3633;SDS011;1833;42.718;23.270;2023-07-31T11:10:39;31.80;;;29.10;;
3633;SDS011;1833;42.718;23.270;2023-07-31T11:13:07;31.40;;;28.90;;
3633;SDS011;1833;42.718;23.270;2023-07-31T11:15:34;31.40;;;28.67;;
3633;SDS011;1833;42.718;23.270;2023-07-31T11:18:01;32.08;;;29.27;;
3633;SDS011;1833;42.718;23.270;2023-07-31T11:20:30;33.05;;;29.95;;
3633;SDS011;1833;42.718;23.270;2023-07-31T11:22:58;31.75;;;28.60;;
3633;SDS011;1833;42.718;23.270;2023-07-31T11:25:28;30.73;;;28.20;;
3633;SDS011;1833;42.718;23.270;2023-07-31T11:27:55;29.02;;;26.63;;
3633;SDS011;1833;42.718;23.270;2023-07-31T11:30:22;31.15;;;28.05;;
3633;SDS011;1833;42.718;23.270;2023-07-31T11:32:50;30.60;;;28.00;;
3633;SDS011;1833;42.718;23.270;2023-07-31T11:35:17;30.80;;;28.30;;
3633;SDS011;1833;42.718;23.270;2023-07-31T11:37:45;30.63;;;28.10;;
3633;SDS011;1833;42.718;23.270;2023-07-31T11:40:12;30.98;;;28.13;;
3633;SDS011;1833;42.718;23.270;2023-07-31T11:42:40;30.95;;;28.35;;
3633;SDS011;1833;42.718;23.270;2023-07-31T11:45:08;31.85;;;29.23;;
3633;SDS011;1833;42.718;23.270;2023-07-31T11:47:36;32.38;;;29.75;;
3633;SDS011;1833;42.718;23.270;2023-07-31T11:50:04;29.40;;;27.15;;
3633;SDS011;1833;42.718;23.270;2023-07-31T11:52:34;31.70;;;29.00;;
3633;SDS011;1833;42.718;23.270;2023-07-31T11:55:03;32.15;;;29.40;;
3633;SDS011;1833;42.718;23.270;2023-07-31T11:57:31;29.83;;;27.42;;
3633;SDS011;1833;42.718;23.270;2023-07-31T12:00:00;29.92;;;27.25;;
3633;SDS011;1833;42.718;23.270;2023-07-31T12:02:28;30.38;;;28.08;;
3633;SDS011;1833;42.718;23.270;2023-07-31T12:04:55;34.33;;;30.10;;
3633;SDS011;1833;42.718;23.270;2023-07-31T12:07:23;34.25;;;31.10;;
3633;SDS011;1833;42.718;23.270;2023-07-31T12:09:52;32.78;;;29.98;;
3633;SDS011;1833;42.718;23.270;2023-07-31T12:12:19;33.65;;;30.75;;
3633;SDS011;1833;42.718;23.270;2023-07-31T12:14:47;33.92;;;31.08;;
3633;SDS011;1833;42.718;23.270;2023-07-31T12:17:17;33.22;;;30.42;;
3633;SDS011;1833;42.718;23.270;2023-07-31T12:19:48;32.20;;;29.60;;
3633;SDS011;1833;42.718;23.270;2023-07-31T12:22:15;31.85;;;28.88;;
3633;SDS011;1833;42.718;23.270;2023-07-31T12:24:43;34.10;;;31.20;;
3633;SDS011;1833;42.718;23.270;2023-07-31T12:27:11;32.85;;;29.80;;
3633;SDS011;1833;42.718;23.270;2023-07-31T12:29:38;32.60;;;29.90;;
3633;SDS011;1833;42.718;23.270;2023-07-31T12:32:19;33.80;;;30.70;;
3633;SDS011;1833;42.718;23.270;2023-07-31T12:34:47;31.85;;;29.05;;
3633;SDS011;1833;42.718;23.270;2023-07-31T12:37:14;31.75;;;28.95;;
3633;SDS011;1833;42.718;23.270;2023-07-31T12:39:41;32.33;;;29.52;;
3633;SDS011;1833;42.718;23.270;2023-07-31T12:42:09;35.22;;;32.13;;
3633;SDS011;1833;42.718;23.270;2023-07-31T12:44:37;35.17;;;31.60;;
3633;SDS011;1833;42.718;23.270;2023-07-31T12:47:04;33.67;;;30.65;;
3633;SDS011;1833;42.718;23.270;2023-07-31T12:49:33;33.20;;;29.98;;
3633;SDS011;1833;42.718;23.270;2023-07-31T12:52:00;33.72;;;30.60;;
3633;SDS011;1833;42.718;23.270;2023-07-31T12:54:30;32.63;;;29.48;;
3633;SDS011;1833;42.718;23.270;2023-07-31T12:56:58;35.40;;;32.28;;
3633;SDS011;1833;42.718;23.270;2023-07-31T12:59:25;35.80;;;32.38;;
3633;SDS011;1833;42.718;23.270;2023-07-31T13:01:52;34.67;;;31.48;;
3633;SDS011;1833;42.718;23.270;2023-07-31T13:04:19;32.05;;;29.27;;
3633;SDS011;1833;42.718;23.270;2023-07-31T13:06:48;33.63;;;30.92;;
3633;SDS011;1833;42.718;23.270;2023-07-31T13:09:15;33.80;;;30.60;;
3633;SDS011;1833;42.718;23.270;2023-07-31T13:11:42;31.95;;;29.08;;
3633;SDS011;1833;42.718;23.270;2023-07-31T13:14:10;30.20;;;27.75;;
3633;SDS011;1833;42.718;23.270;2023-07-31T13:16:37;31.75;;;28.73;;
3633;SDS011;1833;42.718;23.270;2023-07-31T13:19:04;30.30;;;27.90;;
3633;SDS011;1833;42.718;23.270;2023-07-31T13:21:31;31.60;;;28.95;;
3633;SDS011;1833;42.718;23.270;2023-07-31T13:24:03;32.28;;;29.65;;
3633;SDS011;1833;42.718;23.270;2023-07-31T13:26:30;32.55;;;30.00;;
3633;SDS011;1833;42.718;23.270;2023-07-31T13:28:57;33.13;;;29.63;;
3633;SDS011;1833;42.718;23.270;2023-07-31T13:31:24;31.75;;;28.83;;
3633;SDS011;1833;42.718;23.270;2023-07-31T13:33:52;32.72;;;29.73;;
3633;SDS011;1833;42.718;23.270;2023-07-31T13:36:19;33.53;;;30.40;;
3633;SDS011;1833;42.718;23.270;2023-07-31T13:38:46;30.13;;;27.75;;
3633;SDS011;1833;42.718;23.270;2023-07-31T13:41:15;32.80;;;30.10;;
3633;SDS011;1833;42.718;23.270;2023-07-31T13:43:42;35.45;;;32.13;;
3633;SDS011;1833;42.718;23.270;2023-07-31T13:46:09;32.38;;;29.85;;
3633;SDS011;1833;42.718;23.270;2023-07-31T13:48:37;32.95;;;30.30;;
3633;SDS011;1833;42.718;23.270;2023-07-31T13:51:04;31.27;;;28.88;;
3633;SDS011;1833;42.718;23.270;2023-07-31T13:53:31;32.78;;;29.63;;
3633;SDS011;1833;42.718;23.270;2023-07-31T13:55:58;30.17;;;27.77;;
3633;SDS011;1833;42.718;23.270;2023-07-31T13:58:27;30.73;;;28.23;;
3633;SDS011;1833;42.718;23.270;2023-07-31T14:00:54;30.38;;;27.83;;
3633;SDS011;1833;42.718;23.270;2023-07-31T14:03:21;33.55;;;30.55;;
3633;SDS011;1833;42.718;23.270;2023-07-31T14:05:49;31.45;;;28.88;;
3633;SDS011;1833;42.718;23.270;2023-07-31T14:08:16;32.42;;;29.83;;
3633;SDS011;1833;42.718;23.270;2023-07-31T14:10:43;30.73;;;28.20;;
3633;SDS011;1833;42.718;23.270;2023-07-31T14:13:10;43.88;;;40.70;;
3633;SDS011;1833;42.718;23.270;2023-07-31T14:15:41;43.00;;;40.00;;
3633;SDS011;1833;42.718;23.270;2023-07-31T14:18:08;39.33;;;35.97;;
3633;SDS011;1833;42.718;23.270;2023-07-31T14:20:35;35.65;;;32.55;;
3633;SDS011;1833;42.718;23.270;2023-07-31T14:23:03;36.72;;;33.75;;
3633;SDS011;1833;42.718;23.270;2023-07-31T14:25:30;32.20;;;29.35;;
3633;SDS011;1833;42.718;23.270;2023-07-31T14:27:57;34.87;;;31.97;;
3633;SDS011;1833;42.718;23.270;2023-07-31T14:30:24;35.10;;;32.05;;
3633;SDS011;1833;42.718;23.270;2023-07-31T14:32:53;34.70;;;31.48;;
3633;SDS011;1833;42.718;23.270;2023-07-31T14:35:20;34.78;;;31.77;;
3633;SDS011;1833;42.718;23.270;2023-07-31T14:37:47;35.20;;;32.30;;
3633;SDS011;1833;42.718;23.270;2023-07-31T14:40:15;35.15;;;32.05;;